»·PEaware :: N347CD KAVX-KSAN

N347CD :: KAVX-KSAN

FLIGHT INFORMATION

Flight Status: Arrived
Operator: Privately registered:
United States
More flights under this callsign
Pilot: Daniel C. (3642)
Aircraft: BEECH AIRCRAFT BONANZA
(BE36)
More flights by this aircraft type
Origin: KAVX Catalina
United States
Destination: KSAN San Diego Intl-Lindbergh
United States
More flights between these airports :: More routes between these airports
Route: CSTP56
File this flight plan on PilotEdge
Remarks: +CW / LYNDI.RNAV GPS RWY27
Altitude:
(Current/Filed)
5,000ft
Speed:
(Current/Filed)
165kts
Departed: 09-Feb-20 09:02 AM
Arrived: 09-Feb-20 09:58 AM
Distance/Time
Traveled:
74nm/0:56
Distance/Time
To Go:
Arrived

Flight Plot

Page will automatically refresh every two minutes.

Flight plan parsing failed; only flown route is shown


Map Options




Map Legend


Flown Route
Filed Route
Departure Airport
Arrival Airport
Navaid (VOR, NDB)
Fix

Horizontal Profiles

Position Reports

Time Latitude Longitude Heading Altitude Ground
Speed
09-Feb-20 08:36 33.403293 -118.415954 45 1606ft 0kts
09-Feb-20 08:37 33.403293 -118.415954 45 1606ft 0kts
09-Feb-20 08:38 33.403977 -118.414997 12 1606ft 8kts
09-Feb-20 08:39 33.406747 -118.412085 53 1606ft 16kts
09-Feb-20 08:41 33.407178 -118.411390 42 1606ft 0kts
09-Feb-20 08:42 33.407178 -118.411390 42 1606ft 0kts
09-Feb-20 08:43 33.407178 -118.411390 42 1606ft 0kts
09-Feb-20 08:44 33.407178 -118.411390 42 1606ft 0kts
09-Feb-20 08:45 33.407178 -118.411390 42 1606ft 0kts
09-Feb-20 08:46 33.407178 -118.411390 42 1606ft 0kts
09-Feb-20 08:47 33.407178 -118.411390 42 1606ft 0kts
09-Feb-20 08:48 33.407178 -118.411390 42 1606ft 0kts
09-Feb-20 08:54 33.403480 -118.415009 324 1606ft 0kts
09-Feb-20 08:55 33.403480 -118.415009 324 1606ft 0kts
09-Feb-20 08:56 33.404022 -118.414937 353 1606ft 9kts
09-Feb-20 08:57 33.406583 -118.412352 56 1605ft 17kts
09-Feb-20 08:58 33.407154 -118.411420 41 1606ft 0kts
09-Feb-20 08:59 33.407410 -118.411639 254 1606ft 7kts
09-Feb-20 09:01 33.375277 -118.429269 95 3475ft 108kts
09-Feb-20 09:02 33.371405 -118.393121 98 4504ft 129kts
09-Feb-20 09:03 33.365136 -118.343769 98 4771ft 156kts
09-Feb-20 09:04 33.363397 -118.330356 98 4875ft 156kts
09-Feb-20 09:06 33.350753 -118.233600 99 4971ft 162kts
09-Feb-20 09:07 33.349069 -118.220856 98 4971ft 162kts
09-Feb-20 09:08 33.339723 -118.149984 98 4972ft 161kts
09-Feb-20 09:09 33.333246 -118.101005 98 4972ft 161kts
09-Feb-20 09:10 33.326373 -118.049200 98 5055ft 160kts
09-Feb-20 09:11 33.319325 -117.996245 98 5054ft 161kts
09-Feb-20 09:12 33.312247 -117.943237 98 5054ft 161kts
09-Feb-20 09:13 33.311563 -117.938125 98 5054ft 161kts
09-Feb-20 09:14 33.301933 -117.866317 99 5054ft 161kts
09-Feb-20 09:15 33.296691 -117.827367 99 5054ft 161kts
09-Feb-20 09:16 33.290580 -117.782077 99 5054ft 161kts
09-Feb-20 09:17 33.283516 -117.729889 99 5054ft 161kts
09-Feb-20 09:18 33.276490 -117.678141 99 5054ft 161kts
09-Feb-20 09:19 33.269254 -117.625026 99 5031ft 163kts
09-Feb-20 09:20 33.261914 -117.571314 99 5018ft 162kts
09-Feb-20 09:21 33.254631 -117.518200 99 5018ft 162kts
09-Feb-20 09:22 33.252077 -117.499616 99 5018ft 162kts
09-Feb-20 09:23 33.243782 -117.439407 99 5018ft 162kts
09-Feb-20 09:25 33.193499 -117.397774 160 5018ft 161kts
09-Feb-20 09:27 33.117829 -117.365943 160 5018ft 162kts
09-Feb-20 09:28 33.075164 -117.348006 160 5018ft 162kts
09-Feb-20 09:29 33.032733 -117.330186 160 5018ft 162kts
09-Feb-20 09:30 32.990573 -117.312497 160 5018ft 162kts
09-Feb-20 09:31 32.982712 -117.309200 160 5018ft 162kts
09-Feb-20 09:32 32.938614 -117.290722 0 5018ft 0kts
09-Feb-20 09:33 32.904972 -117.275382 139 5003ft 162kts
09-Feb-20 09:34 32.894939 -117.234400 0 5018ft 0kts
09-Feb-20 09:35 32.886956 -117.186830 101 5018ft 162kts
09-Feb-20 09:36 32.878352 -117.135518 101 5018ft 162kts
09-Feb-20 09:37 32.869365 -117.081860 101 5018ft 162kts
09-Feb-20 09:38 32.860587 -117.029399 101 5018ft 162kts
09-Feb-20 09:39 32.852364 -116.980201 101 5018ft 162kts
09-Feb-20 09:40 32.843096 -116.924697 101 5018ft 162kts
09-Feb-20 09:41 32.834810 -116.875024 101 5018ft 162kts
09-Feb-20 09:42 32.826817 -116.827058 101 5018ft 162kts
09-Feb-20 09:43 32.804132 -116.791061 200 5010ft 156kts
09-Feb-20 09:44 32.771042 -116.819420 213 5016ft 145kts
09-Feb-20 09:45 32.737760 -116.843995 211 5017ft 140kts
09-Feb-20 09:46 32.704673 -116.867982 211 5016ft 135kts
09-Feb-20 09:47 32.682353 -116.899803 250 4658ft 124kts
09-Feb-20 09:48 32.672761 -116.932161 251 3888ft 101kts
09-Feb-20 09:49 32.673224 -116.941841 286 3750ft 114kts
09-Feb-20 09:50 32.683539 -116.984207 286 3340ft 123kts
09-Feb-20 09:51 32.691519 -117.016955 286 2904ft 96kts
09-Feb-20 09:52 32.699419 -117.049191 286 2522ft 109kts
09-Feb-20 09:53 32.708329 -117.085727 286 1938ft 112kts
09-Feb-20 09:54 32.715456 -117.114943 285 1358ft 89kts
09-Feb-20 09:55 32.722671 -117.144671 285 777ft 90kts
09-Feb-20 09:56 32.729310 -117.172322 286 190ft 80kts
09-Feb-20 09:57 32.733419 -117.188067 332 20ft 13kts
09-Feb-20 09:58 32.733929 -117.188076 14 20ft 0kts
09-Feb-20 09:59 32.733929 -117.188076 14 20ft 0kts
09-Feb-20 10:00 32.733931 -117.188076 13 20ft 0kts
09-Feb-20 10:01 32.734156 -117.186875 49 20ft 12kts

Navigation Log

Ident Type
Flight plan parsing failed, navigation log unavailable